sensor_id;sensor_type;location;lat;lon;timestamp;P1;durP1;ratioP1;P2;durP2;ratioP2
11835;SDS011;5977;51.972;7.640;2023-09-12T00:00:49;171.83;;;59.57;;
11835;SDS011;5977;51.972;7.640;2023-09-12T00:03:18;172.20;;;60.93;;
11835;SDS011;5977;51.972;7.640;2023-09-12T00:05:51;171.70;;;59.60;;
11835;SDS011;5977;51.972;7.640;2023-09-12T00:08:19;172.27;;;60.40;;
11835;SDS011;5977;51.972;7.640;2023-09-12T00:10:54;171.83;;;59.30;;
11835;SDS011;5977;51.972;7.640;2023-09-12T00:13:25;172.07;;;59.97;;
11835;SDS011;5977;51.972;7.640;2023-09-12T00:15:53;172.17;;;60.17;;
11835;SDS011;5977;51.972;7.640;2023-09-12T00:18:22;171.67;;;59.80;;
11835;SDS011;5977;51.972;7.640;2023-09-12T00:20:50;172.23;;;60.80;;
11835;SDS011;5977;51.972;7.640;2023-09-12T00:23:18;171.87;;;59.90;;
11835;SDS011;5977;51.972;7.640;2023-09-12T00:25:47;172.63;;;60.93;;
11835;SDS011;5977;51.972;7.640;2023-09-12T00:28:18;172.93;;;60.83;;
11835;SDS011;5977;51.972;7.640;2023-09-12T00:30:46;172.20;;;59.97;;
11835;SDS011;5977;51.972;7.640;2023-09-12T00:33:14;172.73;;;60.60;;
11835;SDS011;5977;51.972;7.640;2023-09-12T00:35:43;172.17;;;60.67;;
11835;SDS011;5977;51.972;7.640;2023-09-12T00:38:11;172.53;;;60.00;;
11835;SDS011;5977;51.972;7.640;2023-09-12T00:40:38;171.93;;;60.53;;
11835;SDS011;5977;51.972;7.640;2023-09-12T00:43:08;172.47;;;60.10;;
11835;SDS011;5977;51.972;7.640;2023-09-12T00:45:36;172.63;;;61.27;;
11835;SDS011;5977;51.972;7.640;2023-09-12T00:48:05;172.77;;;60.67;;
11835;SDS011;5977;51.972;7.640;2023-09-12T00:50:34;172.37;;;60.40;;
11835;SDS011;5977;51.972;7.640;2023-09-12T00:53:02;172.70;;;60.50;;
11835;SDS011;5977;51.972;7.640;2023-09-12T00:55:31;172.77;;;60.33;;
11835;SDS011;5977;51.972;7.640;2023-09-12T00:58:01;172.63;;;61.03;;
11835;SDS011;5977;51.972;7.640;2023-09-12T01:00:31;171.83;;;59.97;;
11835;SDS011;5977;51.972;7.640;2023-09-12T01:02:59;172.30;;;60.03;;
11835;SDS011;5977;51.972;7.640;2023-09-12T01:05:27;173.30;;;60.97;;
11835;SDS011;5977;51.972;7.640;2023-09-12T01:07:56;173.27;;;60.93;;
11835;SDS011;5977;51.972;7.640;2023-09-12T01:10:24;172.57;;;60.47;;
11835;SDS011;5977;51.972;7.640;2023-09-12T01:12:52;173.33;;;61.07;;
11835;SDS011;5977;51.972;7.640;2023-09-12T01:15:20;171.73;;;59.63;;
11835;SDS011;5977;51.972;7.640;2023-09-12T01:17:49;172.70;;;60.50;;
11835;SDS011;5977;51.972;7.640;2023-09-12T01:20:19;171.87;;;60.03;;
11835;SDS011;5977;51.972;7.640;2023-09-12T01:22:55;172.83;;;60.43;;
11835;SDS011;5977;51.972;7.640;2023-09-12T01:28:27;172.73;;;60.30;;
11835;SDS011;5977;51.972;7.640;2023-09-12T01:30:58;173.07;;;60.87;;
11835;SDS011;5977;51.972;7.640;2023-09-12T01:33:29;172.27;;;60.37;;
11835;SDS011;5977;51.972;7.640;2023-09-12T01:35:58;171.77;;;59.63;;
11835;SDS011;5977;51.972;7.640;2023-09-12T01:38:26;172.87;;;59.87;;
11835;SDS011;5977;51.972;7.640;2023-09-12T01:40:56;173.27;;;61.30;;
11835;SDS011;5977;51.972;7.640;2023-09-12T01:43:24;172.47;;;60.77;;
11835;SDS011;5977;51.972;7.640;2023-09-12T01:45:55;171.73;;;59.73;;
11835;SDS011;5977;51.972;7.640;2023-09-12T01:48:26;173.00;;;60.60;;
11835;SDS011;5977;51.972;7.640;2023-09-12T01:51:00;172.20;;;60.13;;
11835;SDS011;5977;51.972;7.640;2023-09-12T01:53:28;171.97;;;59.80;;
11835;SDS011;5977;51.972;7.640;2023-09-12T01:55:57;173.00;;;60.67;;
11835;SDS011;5977;51.972;7.640;2023-09-12T01:58:27;173.03;;;60.50;;
11835;SDS011;5977;51.972;7.640;2023-09-12T02:00:56;172.53;;;60.43;;
11835;SDS011;5977;51.972;7.640;2023-09-12T02:03:24;172.13;;;59.70;;
11835;SDS011;5977;51.972;7.640;2023-09-12T02:05:52;172.37;;;60.37;;
11835;SDS011;5977;51.972;7.640;2023-09-12T02:08:20;172.70;;;60.50;;
11835;SDS011;5977;51.972;7.640;2023-09-12T02:10:48;172.47;;;60.30;;
11835;SDS011;5977;51.972;7.640;2023-09-12T02:13:16;173.23;;;60.20;;
11835;SDS011;5977;51.972;7.640;2023-09-12T02:15:45;171.80;;;59.40;;
11835;SDS011;5977;51.972;7.640;2023-09-12T02:18:14;172.90;;;60.07;;
11835;SDS011;5977;51.972;7.640;2023-09-12T02:20:42;172.40;;;59.77;;
11835;SDS011;5977;51.972;7.640;2023-09-12T02:23:12;171.80;;;59.57;;
11835;SDS011;5977;51.972;7.640;2023-09-12T02:25:40;172.13;;;59.90;;
11835;SDS011;5977;51.972;7.640;2023-09-12T02:28:08;172.97;;;60.23;;
11835;SDS011;5977;51.972;7.640;2023-09-12T02:30:37;173.17;;;60.77;;
11835;SDS011;5977;51.972;7.640;2023-09-12T02:33:07;173.33;;;60.50;;
11835;SDS011;5977;51.972;7.640;2023-09-12T02:35:36;173.20;;;60.40;;
11835;SDS011;5977;51.972;7.640;2023-09-12T02:38:03;173.10;;;60.50;;
11835;SDS011;5977;51.972;7.640;2023-09-12T02:40:31;173.67;;;60.37;;
11835;SDS011;5977;51.972;7.640;2023-09-12T02:42:59;171.60;;;58.50;;
11835;SDS011;5977;51.972;7.640;2023-09-12T02:45:28;171.87;;;59.13;;
11835;SDS011;5977;51.972;7.640;2023-09-12T02:47:56;173.17;;;59.97;;
11835;SDS011;5977;51.972;7.640;2023-09-12T02:50:25;172.17;;;59.47;;
11835;SDS011;5977;51.972;7.640;2023-09-12T02:52:53;172.37;;;59.80;;
11835;SDS011;5977;51.972;7.640;2023-09-12T02:55:21;173.33;;;60.50;;
11835;SDS011;5977;51.972;7.640;2023-09-12T02:57:49;172.90;;;60.37;;
11835;SDS011;5977;51.972;7.640;2023-09-12T03:00:17;172.70;;;59.90;;
11835;SDS011;5977;51.972;7.640;2023-09-12T03:02:46;172.80;;;59.90;;
11835;SDS011;5977;51.972;7.640;2023-09-12T03:05:14;173.23;;;60.47;;
11835;SDS011;5977;51.972;7.640;2023-09-12T03:07:43;173.17;;;60.27;;
11835;SDS011;5977;51.972;7.640;2023-09-12T03:10:11;172.97;;;59.80;;
11835;SDS011;5977;51.972;7.640;2023-09-12T03:12:39;172.83;;;59.63;;
11835;SDS011;5977;51.972;7.640;2023-09-12T03:15:08;172.37;;;59.50;;
11835;SDS011;5977;51.972;7.640;2023-09-12T03:17:37;172.97;;;60.10;;
11835;SDS011;5977;51.972;7.640;2023-09-12T03:20:06;173.43;;;60.03;;
11835;SDS011;5977;51.972;7.640;2023-09-12T03:22:35;172.30;;;59.50;;
11835;SDS011;5977;51.972;7.640;2023-09-12T03:25:06;172.73;;;59.80;;
11835;SDS011;5977;51.972;7.640;2023-09-12T03:27:34;172.57;;;60.33;;
11835;SDS011;5977;51.972;7.640;2023-09-12T03:30:03;173.30;;;60.17;;
11835;SDS011;5977;51.972;7.640;2023-09-12T03:32:32;172.33;;;59.17;;
11835;SDS011;5977;51.972;7.640;2023-09-12T03:35:00;172.67;;;59.80;;
11835;SDS011;5977;51.972;7.640;2023-09-12T03:37:28;172.40;;;59.93;;
11835;SDS011;5977;51.972;7.640;2023-09-12T03:39:56;173.10;;;60.37;;
11835;SDS011;5977;51.972;7.640;2023-09-12T03:42:25;171.77;;;58.70;;
11835;SDS011;5977;51.972;7.640;2023-09-12T03:45:07;172.53;;;59.77;;
11835;SDS011;5977;51.972;7.640;2023-09-12T03:47:36;172.47;;;59.40;;
11835;SDS011;5977;51.972;7.640;2023-09-12T03:50:04;172.80;;;59.30;;
11835;SDS011;5977;51.972;7.640;2023-09-12T03:52:33;173.13;;;60.37;;
11835;SDS011;5977;51.972;7.640;2023-09-12T03:55:01;173.43;;;60.30;;
11835;SDS011;5977;51.972;7.640;2023-09-12T03:57:30;172.53;;;60.13;;
11835;SDS011;5977;51.972;7.640;2023-09-12T03:59:58;173.07;;;59.57;;
11835;SDS011;5977;51.972;7.640;2023-09-12T04:02:26;173.27;;;59.87;;
11835;SDS011;5977;51.972;7.640;2023-09-12T04:04:55;173.17;;;60.57;;
11835;SDS011;5977;51.972;7.640;2023-09-12T04:07:25;172.13;;;59.00;;
11835;SDS011;5977;51.972;7.640;2023-09-12T04:09:53;173.23;;;60.50;;
11835;SDS011;5977;51.972;7.640;2023-09-12T04:12:21;172.67;;;59.70;;
11835;SDS011;5977;51.972;7.640;2023-09-12T04:14:52;173.20;;;60.30;;
11835;SDS011;5977;51.972;7.640;2023-09-12T04:17:21;174.30;;;60.17;;
11835;SDS011;5977;51.972;7.640;2023-09-12T04:19:49;173.70;;;60.30;;
11835;SDS011;5977;51.972;7.640;2023-09-12T04:22:17;172.93;;;59.27;;
11835;SDS011;5977;51.972;7.640;2023-09-12T04:24:49;173.07;;;59.60;;
11835;SDS011;5977;51.972;7.640;2023-09-12T04:27:17;172.50;;;59.57;;
11835;SDS011;5977;51.972;7.640;2023-09-12T04:29:45;172.23;;;58.47;;
11835;SDS011;5977;51.972;7.640;2023-09-12T04:32:15;173.33;;;60.47;;
11835;SDS011;5977;51.972;7.640;2023-09-12T04:34:49;172.10;;;60.00;;
11835;SDS011;5977;51.972;7.640;2023-09-12T04:37:18;172.87;;;59.97;;
11835;SDS011;5977;51.972;7.640;2023-09-12T04:39:46;172.63;;;59.23;;
11835;SDS011;5977;51.972;7.640;2023-09-12T04:42:14;172.93;;;59.53;;
11835;SDS011;5977;51.972;7.640;2023-09-12T04:44:42;173.60;;;60.37;;
11835;SDS011;5977;51.972;7.640;2023-09-12T04:47:10;172.80;;;59.87;;
11835;SDS011;5977;51.972;7.640;2023-09-12T04:49:39;173.20;;;59.60;;
11835;SDS011;5977;51.972;7.640;2023-09-12T04:52:07;172.00;;;59.20;;
11835;SDS011;5977;51.972;7.640;2023-09-12T04:54:35;173.00;;;59.30;;
11835;SDS011;5977;51.972;7.640;2023-09-12T04:57:04;173.33;;;59.83;;
11835;SDS011;5977;51.972;7.640;2023-09-12T04:59:32;173.33;;;59.60;;
11835;SDS011;5977;51.972;7.640;2023-09-12T05:02:00;173.33;;;60.43;;
11835;SDS011;5977;51.972;7.640;2023-09-12T05:04:28;172.73;;;59.07;;
11835;SDS011;5977;51.972;7.640;2023-09-12T05:06:57;173.77;;;60.50;;
11835;SDS011;5977;51.972;7.640;2023-09-12T05:09:25;174.13;;;60.80;;
11835;SDS011;5977;51.972;7.640;2023-09-12T05:11:53;173.40;;;59.90;;
11835;SDS011;5977;51.972;7.640;2023-09-12T05:14:21;174.20;;;60.63;;
11835;SDS011;5977;51.972;7.640;2023-09-12T05:16:49;173.33;;;59.67;;
11835;SDS011;5977;51.972;7.640;2023-09-12T05:19:17;173.57;;;59.97;;
11835;SDS011;5977;51.972;7.640;2023-09-12T05:21:45;173.77;;;59.87;;
11835;SDS011;5977;51.972;7.640;2023-09-12T05:24:14;172.43;;;59.50;;
11835;SDS011;5977;51.972;7.640;2023-09-12T05:26:42;173.33;;;59.97;;
11835;SDS011;5977;51.972;7.640;2023-09-12T05:29:11;173.07;;;60.10;;
11835;SDS011;5977;51.972;7.640;2023-09-12T05:31:39;173.63;;;59.40;;
11835;SDS011;5977;51.972;7.640;2023-09-12T05:34:07;173.83;;;59.80;;
11835;SDS011;5977;51.972;7.640;2023-09-12T05:36:35;172.73;;;59.77;;
11835;SDS011;5977;51.972;7.640;2023-09-12T05:39:03;172.80;;;59.60;;
11835;SDS011;5977;51.972;7.640;2023-09-12T05:41:33;172.77;;;59.63;;
11835;SDS011;5977;51.972;7.640;2023-09-12T05:44:01;173.03;;;59.43;;
11835;SDS011;5977;51.972;7.640;2023-09-12T05:46:29;173.03;;;59.20;;
11835;SDS011;5977;51.972;7.640;2023-09-12T05:48:57;173.87;;;60.10;;
11835;SDS011;5977;51.972;7.640;2023-09-12T05:51:25;173.33;;;59.53;;
11835;SDS011;5977;51.972;7.640;2023-09-12T05:53:53;173.17;;;59.70;;
11835;SDS011;5977;51.972;7.640;2023-09-12T05:56:21;173.40;;;59.80;;
11835;SDS011;5977;51.972;7.640;2023-09-12T05:58:50;174.17;;;60.20;;
11835;SDS011;5977;51.972;7.640;2023-09-12T06:01:18;173.10;;;59.70;;
11835;SDS011;5977;51.972;7.640;2023-09-12T06:03:46;174.27;;;60.40;;
11835;SDS011;5977;51.972;7.640;2023-09-12T06:06:14;173.00;;;59.50;;
11835;SDS011;5977;51.972;7.640;2023-09-12T06:08:42;173.67;;;59.50;;
11835;SDS011;5977;51.972;7.640;2023-09-12T06:11:10;173.30;;;58.77;;
11835;SDS011;5977;51.972;7.640;2023-09-12T06:13:38;173.33;;;57.80;;
11835;SDS011;5977;51.972;7.640;2023-09-12T06:16:07;173.47;;;57.60;;
11835;SDS011;5977;51.972;7.640;2023-09-12T06:18:35;173.73;;;57.70;;
11835;SDS011;5977;51.972;7.640;2023-09-12T06:21:03;174.63;;;58.10;;
11835;SDS011;5977;51.972;7.640;2023-09-12T06:23:34;174.30;;;57.63;;
11835;SDS011;5977;51.972;7.640;2023-09-12T06:26:03;174.87;;;57.63;;
11835;SDS011;5977;51.972;7.640;2023-09-12T06:28:31;174.20;;;57.37;;
11835;SDS011;5977;51.972;7.640;2023-09-12T06:30:59;173.70;;;57.20;;
11835;SDS011;5977;51.972;7.640;2023-09-12T06:33:28;174.50;;;58.23;;
11835;SDS011;5977;51.972;7.640;2023-09-12T06:35:56;173.70;;;57.30;;
11835;SDS011;5977;51.972;7.640;2023-09-12T06:38:24;173.90;;;58.20;;
11835;SDS011;5977;51.972;7.640;2023-09-12T06:40:52;174.53;;;57.83;;
11835;SDS011;5977;51.972;7.640;2023-09-12T06:43:21;175.00;;;58.23;;
11835;SDS011;5977;51.972;7.640;2023-09-12T06:45:49;173.57;;;57.07;;
11835;SDS011;5977;51.972;7.640;2023-09-12T06:48:17;173.60;;;56.83;;
11835;SDS011;5977;51.972;7.640;2023-09-12T06:50:47;174.13;;;56.77;;
11835;SDS011;5977;51.972;7.640;2023-09-12T06:53:19;174.87;;;56.83;;
11835;SDS011;5977;51.972;7.640;2023-09-12T06:55:47;174.17;;;56.80;;
11835;SDS011;5977;51.972;7.640;2023-09-12T06:58:15;175.63;;;57.70;;
11835;SDS011;5977;51.972;7.640;2023-09-12T07:00:43;174.97;;;57.60;;
11835;SDS011;5977;51.972;7.640;2023-09-12T07:03:11;175.50;;;57.90;;
11835;SDS011;5977;51.972;7.640;2023-09-12T07:05:42;175.30;;;57.50;;
11835;SDS011;5977;51.972;7.640;2023-09-12T07:08:12;175.17;;;57.50;;
11835;SDS011;5977;51.972;7.640;2023-09-12T07:10:43;174.70;;;56.30;;
11835;SDS011;5977;51.972;7.640;2023-09-12T07:13:12;174.83;;;57.00;;
11835;SDS011;5977;51.972;7.640;2023-09-12T07:15:40;174.50;;;56.57;;
11835;SDS011;5977;51.972;7.640;2023-09-12T07:18:08;174.03;;;56.83;;
11835;SDS011;5977;51.972;7.640;2023-09-12T07:20:36;174.30;;;56.97;;
11835;SDS011;5977;51.972;7.640;2023-09-12T07:23:03;174.57;;;56.70;;
11835;SDS011;5977;51.972;7.640;2023-09-12T07:25:36;174.63;;;57.10;;
11835;SDS011;5977;51.972;7.640;2023-09-12T07:28:06;174.67;;;57.80;;
11835;SDS011;5977;51.972;7.640;2023-09-12T07:30:34;175.00;;;58.07;;
11835;SDS011;5977;51.972;7.640;2023-09-12T07:33:03;175.10;;;58.13;;
11835;SDS011;5977;51.972;7.640;2023-09-12T07:35:32;175.83;;;58.47;;
11835;SDS011;5977;51.972;7.640;2023-09-12T07:38:00;172.93;;;56.80;;
11835;SDS011;5977;51.972;7.640;2023-09-12T07:40:29;174.60;;;57.47;;
11835;SDS011;5977;51.972;7.640;2023-09-12T07:42:58;174.57;;;57.50;;
11835;SDS011;5977;51.972;7.640;2023-09-12T07:45:26;174.33;;;57.73;;
11835;SDS011;5977;51.972;7.640;2023-09-12T07:47:55;173.87;;;57.47;;
11835;SDS011;5977;51.972;7.640;2023-09-12T07:50:23;173.83;;;58.20;;
11835;SDS011;5977;51.972;7.640;2023-09-12T07:52:51;173.97;;;57.97;;
11835;SDS011;5977;51.972;7.640;2023-09-12T07:55:22;174.60;;;57.57;;
11835;SDS011;5977;51.972;7.640;2023-09-12T07:57:50;174.57;;;58.30;;
11835;SDS011;5977;51.972;7.640;2023-09-12T08:00:20;174.77;;;58.07;;
11835;SDS011;5977;51.972;7.640;2023-09-12T08:02:48;175.50;;;58.10;;
11835;SDS011;5977;51.972;7.640;2023-09-12T08:05:16;174.50;;;57.27;;
11835;SDS011;5977;51.972;7.640;2023-09-12T08:07:45;174.10;;;56.30;;
11835;SDS011;5977;51.972;7.640;2023-09-12T08:10:13;174.23;;;56.23;;
11835;SDS011;5977;51.972;7.640;2023-09-12T08:12:41;174.97;;;57.27;;
11835;SDS011;5977;51.972;7.640;2023-09-12T08:15:09;174.60;;;56.83;;
11835;SDS011;5977;51.972;7.640;2023-09-12T08:17:39;174.77;;;57.17;;
11835;SDS011;5977;51.972;7.640;2023-09-12T08:20:07;174.33;;;56.67;;
11835;SDS011;5977;51.972;7.640;2023-09-12T08:22:36;174.63;;;56.90;;
11835;SDS011;5977;51.972;7.640;2023-09-12T08:25:05;175.07;;;57.13;;
11835;SDS011;5977;51.972;7.640;2023-09-12T08:27:33;174.37;;;56.47;;
11835;SDS011;5977;51.972;7.640;2023-09-12T08:30:01;174.40;;;56.37;;
11835;SDS011;5977;51.972;7.640;2023-09-12T08:32:30;174.77;;;56.70;;
11835;SDS011;5977;51.972;7.640;2023-09-12T08:34:59;175.43;;;57.13;;
11835;SDS011;5977;51.972;7.640;2023-09-12T08:37:27;174.47;;;56.63;;
11835;SDS011;5977;51.972;7.640;2023-09-12T08:39:55;174.30;;;56.23;;
11835;SDS011;5977;51.972;7.640;2023-09-12T08:42:26;174.70;;;56.50;;
11835;SDS011;5977;51.972;7.640;2023-09-12T08:44:54;173.90;;;56.27;;
11835;SDS011;5977;51.972;7.640;2023-09-12T08:47:23;174.00;;;56.57;;
11835;SDS011;5977;51.972;7.640;2023-09-12T08:49:54;174.73;;;56.53;;
11835;SDS011;5977;51.972;7.640;2023-09-12T08:52:24;175.00;;;56.47;;
11835;SDS011;5977;51.972;7.640;2023-09-12T08:54:52;174.90;;;56.10;;
11835;SDS011;5977;51.972;7.640;2023-09-12T08:57:20;174.83;;;56.37;;
11835;SDS011;5977;51.972;7.640;2023-09-12T08:59:49;174.23;;;55.83;;
11835;SDS011;5977;51.972;7.640;2023-09-12T09:02:19;174.50;;;56.47;;
11835;SDS011;5977;51.972;7.640;2023-09-12T09:04:48;174.87;;;56.50;;
11835;SDS011;5977;51.972;7.640;2023-09-12T09:07:18;175.30;;;56.60;;
11835;SDS011;5977;51.972;7.640;2023-09-12T09:09:49;174.47;;;56.17;;
11835;SDS011;5977;51.972;7.640;2023-09-12T09:12:20;175.13;;;56.83;;
11835;SDS011;5977;51.972;7.640;2023-09-12T09:14:48;174.20;;;56.57;;
11835;SDS011;5977;51.972;7.640;2023-09-12T09:17:15;173.47;;;56.00;;
11835;SDS011;5977;51.972;7.640;2023-09-12T09:19:59;174.50;;;57.43;;
11835;SDS011;5977;51.972;7.640;2023-09-12T09:22:27;174.07;;;56.70;;
11835;SDS011;5977;51.972;7.640;2023-09-12T09:25:08;174.70;;;56.70;;
11835;SDS011;5977;51.972;7.640;2023-09-12T09:27:37;175.33;;;57.07;;
11835;SDS011;5977;51.972;7.640;2023-09-12T09:30:06;174.53;;;56.87;;
11835;SDS011;5977;51.972;7.640;2023-09-12T09:32:34;174.00;;;56.30;;
11835;SDS011;5977;51.972;7.640;2023-09-12T09:35:03;174.37;;;56.87;;
11835;SDS011;5977;51.972;7.640;2023-09-12T09:37:33;173.43;;;56.00;;
11835;SDS011;5977;51.972;7.640;2023-09-12T09:40:01;174.40;;;56.70;;
11835;SDS011;5977;51.972;7.640;2023-09-12T09:42:34;173.77;;;56.37;;
11835;SDS011;5977;51.972;7.640;2023-09-12T09:45:02;174.63;;;56.77;;
11835;SDS011;5977;51.972;7.640;2023-09-12T09:47:30;173.43;;;55.97;;
11835;SDS011;5977;51.972;7.640;2023-09-12T09:49:59;174.33;;;56.93;;
11835;SDS011;5977;51.972;7.640;2023-09-12T09:52:27;174.83;;;57.00;;
11835;SDS011;5977;51.972;7.640;2023-09-12T09:54:55;174.30;;;56.80;;
11835;SDS011;5977;51.972;7.640;2023-09-12T09:57:25;174.83;;;57.03;;
11835;SDS011;5977;51.972;7.640;2023-09-12T09:59:54;174.70;;;57.03;;
11835;SDS011;5977;51.972;7.640;2023-09-12T10:02:22;174.67;;;56.73;;
11835;SDS011;5977;51.972;7.640;2023-09-12T10:04:54;173.33;;;56.17;;
11835;SDS011;5977;51.972;7.640;2023-09-12T10:07:26;173.80;;;56.93;;
11835;SDS011;5977;51.972;7.640;2023-09-12T10:09:59;174.33;;;56.90;;
11835;SDS011;5977;51.972;7.640;2023-09-12T10:12:30;173.90;;;57.00;;
11835;SDS011;5977;51.972;7.640;2023-09-12T10:15:01;173.67;;;57.27;;
11835;SDS011;5977;51.972;7.640;2023-09-12T10:17:32;174.13;;;57.30;;
11835;SDS011;5977;51.972;7.640;2023-09-12T10:20:04;174.87;;;57.50;;
11835;SDS011;5977;51.972;7.640;2023-09-12T10:22:40;174.63;;;57.20;;
11835;SDS011;5977;51.972;7.640;2023-09-12T10:25:13;173.63;;;56.20;;
11835;SDS011;5977;51.972;7.640;2023-09-12T10:27:41;174.90;;;57.17;;
11835;SDS011;5977;51.972;7.640;2023-09-12T10:30:10;173.83;;;56.77;;
11835;SDS011;5977;51.972;7.640;2023-09-12T10:32:39;174.17;;;57.57;;
11835;SDS011;5977;51.972;7.640;2023-09-12T10:35:09;175.07;;;58.00;;
11835;SDS011;5977;51.972;7.640;2023-09-12T10:37:37;173.80;;;58.03;;
11835;SDS011;5977;51.972;7.640;2023-09-12T10:40:08;173.50;;;57.73;;
11835;SDS011;5977;51.972;7.640;2023-09-12T10:42:38;174.63;;;58.20;;
11835;SDS011;5977;51.972;7.640;2023-09-12T10:45:07;174.17;;;58.40;;
11835;SDS011;5977;51.972;7.640;2023-09-12T10:47:37;174.47;;;58.67;;
11835;SDS011;5977;51.972;7.640;2023-09-12T10:50:06;173.80;;;58.23;;
11835;SDS011;5977;51.972;7.640;2023-09-12T10:52:34;173.43;;;58.30;;
11835;SDS011;5977;51.972;7.640;2023-09-12T10:55:06;175.43;;;59.60;;
11835;SDS011;5977;51.972;7.640;2023-09-12T10:57:34;173.97;;;57.70;;
11835;SDS011;5977;51.972;7.640;2023-09-12T11:00:22;174.97;;;58.33;;
11835;SDS011;5977;51.972;7.640;2023-09-12T11:02:52;174.47;;;58.10;;
11835;SDS011;5977;51.972;7.640;2023-09-12T11:05:36;174.27;;;58.37;;
11835;SDS011;5977;51.972;7.640;2023-09-12T11:08:05;174.57;;;58.20;;
11835;SDS011;5977;51.972;7.640;2023-09-12T11:10:33;174.57;;;58.03;;
11835;SDS011;5977;51.972;7.640;2023-09-12T11:13:01;174.10;;;57.97;;
11835;SDS011;5977;51.972;7.640;2023-09-12T11:15:30;174.17;;;58.00;;
11835;SDS011;5977;51.972;7.640;2023-09-12T11:18:03;173.73;;;58.13;;
11835;SDS011;5977;51.972;7.640;2023-09-12T11:20:48;173.87;;;58.90;;
11835;SDS011;5977;51.972;7.640;2023-09-12T11:23:19;175.43;;;59.90;;
11835;SDS011;5977;51.972;7.640;2023-09-12T11:25:47;174.23;;;59.30;;
11835;SDS011;5977;51.972;7.640;2023-09-12T11:28:15;174.33;;;58.93;;
11835;SDS011;5977;51.972;7.640;2023-09-12T11:30:55;174.10;;;58.50;;
11835;SDS011;5977;51.972;7.640;2023-09-12T11:33:26;173.87;;;57.87;;
11835;SDS011;5977;51.972;7.640;2023-09-12T11:35:55;173.93;;;58.73;;
11835;SDS011;5977;51.972;7.640;2023-09-12T11:38:27;174.87;;;58.87;;
11835;SDS011;5977;51.972;7.640;2023-09-12T11:40:57;174.37;;;58.73;;
11835;SDS011;5977;51.972;7.640;2023-09-12T11:43:26;173.67;;;57.87;;
11835;SDS011;5977;51.972;7.640;2023-09-12T11:45:55;174.87;;;58.63;;
11835;SDS011;5977;51.972;7.640;2023-09-12T11:48:26;173.73;;;58.67;;
11835;SDS011;5977;51.972;7.640;2023-09-12T11:50:56;173.03;;;57.87;;
11835;SDS011;5977;51.972;7.640;2023-09-12T11:53:26;174.37;;;58.57;;
11835;SDS011;5977;51.972;7.640;2023-09-12T11:55:57;174.10;;;58.30;;
11835;SDS011;5977;51.972;7.640;2023-09-12T11:58:26;174.67;;;58.60;;
11835;SDS011;5977;51.972;7.640;2023-09-12T12:00:55;174.30;;;58.83;;
11835;SDS011;5977;51.972;7.640;2023-09-12T12:03:26;173.83;;;58.33;;
11835;SDS011;5977;51.972;7.640;2023-09-12T12:05:55;173.13;;;57.90;;
11835;SDS011;5977;51.972;7.640;2023-09-12T12:08:24;174.17;;;58.77;;
11835;SDS011;5977;51.972;7.640;2023-09-12T12:10:58;174.80;;;58.57;;
11835;SDS011;5977;51.972;7.640;2023-09-12T12:13:27;174.27;;;58.43;;
11835;SDS011;5977;51.972;7.640;2023-09-12T12:15:56;173.80;;;58.20;;
11835;SDS011;5977;51.972;7.640;2023-09-12T12:18:26;174.00;;;58.50;;
11835;SDS011;5977;51.972;7.640;2023-09-12T12:20:54;174.53;;;59.63;;
11835;SDS011;5977;51.972;7.640;2023-09-12T12:23:22;174.63;;;59.27;;
11835;SDS011;5977;51.972;7.640;2023-09-12T12:25:50;173.27;;;58.60;;
11835;SDS011;5977;51.972;7.640;2023-09-12T12:28:18;174.47;;;59.07;;
11835;SDS011;5977;51.972;7.640;2023-09-12T12:30:46;172.90;;;58.87;;
11835;SDS011;5977;51.972;7.640;2023-09-12T12:33:17;174.97;;;59.87;;
11835;SDS011;5977;51.972;7.640;2023-09-12T12:36:07;174.60;;;59.17;;
11835;SDS011;5977;51.972;7.640;2023-09-12T12:38:36;174.50;;;58.63;;
11835;SDS011;5977;51.972;7.640;2023-09-12T12:41:16;173.70;;;58.60;;
11835;SDS011;5977;51.972;7.640;2023-09-12T12:43:49;174.37;;;58.77;;
11835;SDS011;5977;51.972;7.640;2023-09-12T12:46:18;174.63;;;59.10;;
11835;SDS011;5977;51.972;7.640;2023-09-12T12:48:48;174.50;;;59.37;;
11835;SDS011;5977;51.972;7.640;2023-09-12T12:51:18;173.93;;;58.53;;
11835;SDS011;5977;51.972;7.640;2023-09-12T12:53:49;174.20;;;58.87;;
11835;SDS011;5977;51.972;7.640;2023-09-12T12:56:20;174.63;;;58.67;;
11835;SDS011;5977;51.972;7.640;2023-09-12T12:58:50;175.20;;;58.97;;
11835;SDS011;5977;51.972;7.640;2023-09-12T13:01:18;175.43;;;59.47;;
11835;SDS011;5977;51.972;7.640;2023-09-12T13:03:47;173.73;;;58.10;;
11835;SDS011;5977;51.972;7.640;2023-09-12T13:06:19;175.00;;;58.80;;
11835;SDS011;5977;51.972;7.640;2023-09-12T13:08:47;173.67;;;58.50;;
11835;SDS011;5977;51.972;7.640;2023-09-12T13:11:17;175.30;;;59.23;;
11835;SDS011;5977;51.972;7.640;2023-09-12T13:13:45;174.90;;;59.50;;
11835;SDS011;5977;51.972;7.640;2023-09-12T13:16:15;174.67;;;59.60;;
11835;SDS011;5977;51.972;7.640;2023-09-12T13:18:43;174.57;;;58.80;;
11835;SDS011;5977;51.972;7.640;2023-09-12T13:21:12;174.43;;;58.80;;
11835;SDS011;5977;51.972;7.640;2023-09-12T13:23:41;174.47;;;59.17;;
11835;SDS011;5977;51.972;7.640;2023-09-12T13:26:09;174.47;;;58.50;;
11835;SDS011;5977;51.972;7.640;2023-09-12T13:28:37;174.37;;;58.83;;
11835;SDS011;5977;51.972;7.640;2023-09-12T13:31:05;174.60;;;59.00;;
11835;SDS011;5977;51.972;7.640;2023-09-12T13:33:34;174.00;;;58.20;;
11835;SDS011;5977;51.972;7.640;2023-09-12T13:36:02;174.40;;;59.20;;
11835;SDS011;5977;51.972;7.640;2023-09-12T13:38:30;174.37;;;58.87;;
11835;SDS011;5977;51.972;7.640;2023-09-12T13:40:59;172.60;;;57.80;;
11835;SDS011;5977;51.972;7.640;2023-09-12T13:43:27;173.83;;;58.33;;
11835;SDS011;5977;51.972;7.640;2023-09-12T13:45:55;174.37;;;58.90;;
11835;SDS011;5977;51.972;7.640;2023-09-12T13:48:23;174.13;;;58.33;;
11835;SDS011;5977;51.972;7.640;2023-09-12T13:50:52;174.43;;;58.70;;
11835;SDS011;5977;51.972;7.640;2023-09-12T13:53:20;174.27;;;59.33;;
11835;SDS011;5977;51.972;7.640;2023-09-12T13:55:48;174.20;;;58.93;;
11835;SDS011;5977;51.972;7.640;2023-09-12T13:58:37;174.50;;;58.77;;
11835;SDS011;5977;51.972;7.640;2023-09-12T14:01:08;174.47;;;59.20;;
11835;SDS011;5977;51.972;7.640;2023-09-12T14:03:43;174.57;;;59.20;;
11835;SDS011;5977;51.972;7.640;2023-09-12T14:06:12;174.47;;;58.77;;
11835;SDS011;5977;51.972;7.640;2023-09-12T14:08:40;175.50;;;59.80;;
11835;SDS011;5977;51.972;7.640;2023-09-12T14:11:09;173.93;;;59.33;;
11835;SDS011;5977;51.972;7.640;2023-09-12T14:13:54;173.57;;;59.17;;
11835;SDS011;5977;51.972;7.640;2023-09-12T14:16:38;173.83;;;59.10;;
11835;SDS011;5977;51.972;7.640;2023-09-12T14:19:08;174.90;;;60.27;;
11835;SDS011;5977;51.972;7.640;2023-09-12T14:21:37;174.60;;;59.60;;
11835;SDS011;5977;51.972;7.640;2023-09-12T14:24:07;173.83;;;58.80;;
11835;SDS011;5977;51.972;7.640;2023-09-12T14:26:36;174.67;;;60.13;;
11835;SDS011;5977;51.972;7.640;2023-09-12T14:29:05;174.23;;;59.60;;
11835;SDS011;5977;51.972;7.640;2023-09-12T14:31:34;173.77;;;59.20;;
11835;SDS011;5977;51.972;7.640;2023-09-12T14:34:03;174.13;;;59.20;;
11835;SDS011;5977;51.972;7.640;2023-09-12T14:36:35;174.07;;;58.80;;